sensor_id;sensor_type;location;lat;lon;timestamp;P1;P2;P0
45700;PMS5003;36277;32.852;-116.998;2023-02-18T00:00:14;31.75;30.00;14.50
45700;PMS5003;36277;32.852;-116.998;2023-02-18T00:02:43;29.00;27.50;17.25
45700;PMS5003;36277;32.852;-116.998;2023-02-18T00:05:10;35.50;32.50;17.00
45700;PMS5003;36277;32.852;-116.998;2023-02-18T00:07:38;32.75;30.75;15.75
45700;PMS5003;36277;32.852;-116.998;2023-02-18T00:10:09;28.25;28.25;15.75
45700;PMS5003;36277;32.852;-116.998;2023-02-18T00:12:38;33.75;31.75;18.25
45700;PMS5003;36277;32.852;-116.998;2023-02-18T00:15:05;35.75;32.75;18.00
45700;PMS5003;36277;32.852;-116.998;2023-02-18T00:17:32;24.75;23.50;17.25
45700;PMS5003;36277;32.852;-116.998;2023-02-18T00:19:58;31.50;29.25;15.00
45700;PMS5003;36277;32.852;-116.998;2023-02-18T00:22:24;35.75;33.00;16.75
45700;PMS5003;36277;32.852;-116.998;2023-02-18T00:24:51;32.00;30.75;16.75
45700;PMS5003;36277;32.852;-116.998;2023-02-18T00:27:17;35.25;32.75;18.75
45700;PMS5003;36277;32.852;-116.998;2023-02-18T00:29:43;27.25;26.50;12.25
45700;PMS5003;36277;32.852;-116.998;2023-02-18T00:32:10;33.50;32.00;15.25
45700;PMS5003;36277;32.852;-116.998;2023-02-18T00:34:36;24.50;24.25;11.00
45700;PMS5003;36277;32.852;-116.998;2023-02-18T00:37:02;36.75;32.50;16.50
45700;PMS5003;36277;32.852;-116.998;2023-02-18T00:39:29;30.75;29.75;16.00
45700;PMS5003;36277;32.852;-116.998;2023-02-18T00:41:56;26.75;26.00;13.75
45700;PMS5003;36277;32.852;-116.998;2023-02-18T00:44:22;30.50;29.25;15.25
45700;PMS5003;36277;32.852;-116.998;2023-02-18T00:46:48;29.25;29.00;16.00
45700;PMS5003;36277;32.852;-116.998;2023-02-18T00:49:15;29.25;27.50;14.00
45700;PMS5003;36277;32.852;-116.998;2023-02-18T00:51:42;28.60;28.40;13.40
45700;PMS5003;36277;32.852;-116.998;2023-02-18T00:54:08;28.00;27.20;13.80
45700;PMS5003;36277;32.852;-116.998;2023-02-18T00:56:35;30.25;29.50;16.50
45700;PMS5003;36277;32.852;-116.998;2023-02-18T00:59:02;23.60;23.60;14.80
45700;PMS5003;36277;32.852;-116.998;2023-02-18T01:01:28;25.60;25.60;14.40
45700;PMS5003;36277;32.852;-116.998;2023-02-18T01:03:54;27.80;25.40;14.40
45700;PMS5003;36277;32.852;-116.998;2023-02-18T01:06:21;26.60;25.60;12.00
45700;PMS5003;36277;32.852;-116.998;2023-02-18T01:08:47;22.40;22.20;11.40
45700;PMS5003;36277;32.852;-116.998;2023-02-18T01:11:14;26.40;23.80;12.00
45700;PMS5003;36277;32.852;-116.998;2023-02-18T01:13:40;20.00;20.00;11.40
45700;PMS5003;36277;32.852;-116.998;2023-02-18T01:16:07;23.60;22.40;12.80
45700;PMS5003;36277;32.852;-116.998;2023-02-18T01:18:34;20.80;20.40;12.00
45700;PMS5003;36277;32.852;-116.998;2023-02-18T01:21:00;19.60;19.40;11.00
45700;PMS5003;36277;32.852;-116.998;2023-02-18T01:23:26;27.00;26.00;13.20
45700;PMS5003;36277;32.852;-116.998;2023-02-18T01:25:53;22.80;22.40;11.00
45700;PMS5003;36277;32.852;-116.998;2023-02-18T01:28:20;25.80;25.40;13.00
45700;PMS5003;36277;32.852;-116.998;2023-02-18T01:30:49;23.80;22.60;12.40
45700;PMS5003;36277;32.852;-116.998;2023-02-18T01:33:17;15.20;15.20;8.60
45700;PMS5003;36277;32.852;-116.998;2023-02-18T01:35:43;22.20;21.80;13.20
45700;PMS5003;36277;32.852;-116.998;2023-02-18T01:38:10;18.80;18.00;12.80
45700;PMS5003;36277;32.852;-116.998;2023-02-18T01:40:42;17.80;17.20;10.20
45700;PMS5003;36277;32.852;-116.998;2023-02-18T01:43:15;17.60;17.20;9.40
45700;PMS5003;36277;32.852;-116.998;2023-02-18T01:50:50;19.40;17.20;10.60
45700;PMS5003;36277;32.852;-116.998;2023-02-18T01:53:25;15.40;15.40;8.60
45700;PMS5003;36277;32.852;-116.998;2023-02-18T01:55:55;15.60;15.60;7.80
45700;PMS5003;36277;32.852;-116.998;2023-02-18T01:58:23;18.40;16.40;9.00
45700;PMS5003;36277;32.852;-116.998;2023-02-18T02:00:49;20.60;20.60;12.40
45700;PMS5003;36277;32.852;-116.998;2023-02-18T02:03:15;12.40;12.40;9.60
45700;PMS5003;36277;32.852;-116.998;2023-02-18T02:05:42;13.00;13.00;5.80
45700;PMS5003;36277;32.852;-116.998;2023-02-18T02:08:08;15.40;14.20;8.00
45700;PMS5003;36277;32.852;-116.998;2023-02-18T02:10:41;16.40;16.40;9.60
45700;PMS5003;36277;32.852;-116.998;2023-02-18T02:14:06;14.60;13.60;8.60
45700;PMS5003;36277;32.852;-116.998;2023-02-18T02:25:25;16.20;16.20;8.40
45700;PMS5003;36277;32.852;-116.998;2023-02-18T02:28:13;16.40;16.00;8.20
45700;PMS5003;36277;32.852;-116.998;2023-02-18T02:53:29;11.80;11.80;8.20
45700;PMS5003;36277;32.852;-116.998;2023-02-18T02:55:58;10.20;10.20;7.00
45700;PMS5003;36277;32.852;-116.998;2023-02-18T02:58:24;13.80;13.00;7.00
45700;PMS5003;36277;32.852;-116.998;2023-02-18T03:00:55;11.20;11.20;7.80
45700;PMS5003;36277;32.852;-116.998;2023-02-18T03:03:34;11.00;11.00;7.60
45700;PMS5003;36277;32.852;-116.998;2023-02-18T03:11:51;10.80;10.80;5.60
45700;PMS5003;36277;32.852;-116.998;2023-02-18T03:14:29;11.20;11.20;7.40
45700;PMS5003;36277;32.852;-116.998;2023-02-18T03:16:58;10.60;10.60;6.40
45700;PMS5003;36277;32.852;-116.998;2023-02-18T03:19:51;12.00;11.00;7.00
45700;PMS5003;36277;32.852;-116.998;2023-02-18T03:22:28;10.40;10.40;7.00
45700;PMS5003;36277;32.852;-116.998;2023-02-18T03:24:57;8.00;8.00;4.60
45700;PMS5003;36277;32.852;-116.998;2023-02-18T03:27:27;10.00;10.00;6.60
45700;PMS5003;36277;32.852;-116.998;2023-02-18T03:32:42;9.60;9.60;7.00
45700;PMS5003;36277;32.852;-116.998;2023-02-18T03:35:13;7.00;7.00;5.00
45700;PMS5003;36277;32.852;-116.998;2023-02-18T03:37:47;8.40;8.40;6.00
45700;PMS5003;36277;32.852;-116.998;2023-02-18T03:40:27;9.60;9.60;6.00
45700;PMS5003;36277;32.852;-116.998;2023-02-18T03:42:58;10.20;10.20;7.00
45700;PMS5003;36277;32.852;-116.998;2023-02-18T03:45:25;10.00;10.00;6.60
45700;PMS5003;36277;32.852;-116.998;2023-02-18T03:47:51;4.80;4.80;3.60
45700;PMS5003;36277;32.852;-116.998;2023-02-18T03:50:18;10.00;10.00;6.60
45700;PMS5003;36277;32.852;-116.998;2023-02-18T03:52:44;10.60;10.60;7.00
45700;PMS5003;36277;32.852;-116.998;2023-02-18T03:55:10;10.00;10.00;5.80
45700;PMS5003;36277;32.852;-116.998;2023-02-18T03:57:37;7.80;7.80;5.40
45700;PMS5003;36277;32.852;-116.998;2023-02-18T04:00:03;6.60;6.60;5.80
45700;PMS5003;36277;32.852;-116.998;2023-02-18T04:02:32;8.20;8.20;6.20
45700;PMS5003;36277;32.852;-116.998;2023-02-18T04:04:58;8.20;8.20;6.00
45700;PMS5003;36277;32.852;-116.998;2023-02-18T04:07:25;9.40;9.40;7.00
45700;PMS5003;36277;32.852;-116.998;2023-02-18T04:09:51;7.60;7.60;6.20
45700;PMS5003;36277;32.852;-116.998;2023-02-18T04:12:17;9.00;9.00;7.00
45700;PMS5003;36277;32.852;-116.998;2023-02-18T04:14:43;7.00;7.00;6.00
45700;PMS5003;36277;32.852;-116.998;2023-02-18T04:17:10;8.60;8.60;6.00
45700;PMS5003;36277;32.852;-116.998;2023-02-18T04:19:36;9.00;8.00;5.80
45700;PMS5003;36277;32.852;-116.998;2023-02-18T04:22:02;6.00;6.00;5.00
45700;PMS5003;36277;32.852;-116.998;2023-02-18T04:24:28;6.00;6.00;4.80
45700;PMS5003;36277;32.852;-116.998;2023-02-18T04:26:55;5.00;5.00;4.60
45700;PMS5003;36277;32.852;-116.998;2023-02-18T04:29:21;6.60;6.60;5.00
45700;PMS5003;36277;32.852;-116.998;2023-02-18T04:31:47;5.20;5.20;4.00
45700;PMS5003;36277;32.852;-116.998;2023-02-18T04:34:13;6.20;6.20;5.00
45700;PMS5003;36277;32.852;-116.998;2023-02-18T04:36:40;3.00;3.00;3.00
45700;PMS5003;36277;32.852;-116.998;2023-02-18T04:39:06;6.00;6.00;5.00
45700;PMS5003;36277;32.852;-116.998;2023-02-18T04:41:32;7.20;7.20;5.00
45700;PMS5003;36277;32.852;-116.998;2023-02-18T04:43:58;7.60;7.60;5.00
45700;PMS5003;36277;32.852;-116.998;2023-02-18T04:46:25;7.20;7.20;5.80
45700;PMS5003;36277;32.852;-116.998;2023-02-18T04:48:52;7.80;7.80;5.60
45700;PMS5003;36277;32.852;-116.998;2023-02-18T04:51:18;8.00;8.00;4.00
45700;PMS5003;36277;32.852;-116.998;2023-02-18T04:53:44;5.20;5.20;4.60
45700;PMS5003;36277;32.852;-116.998;2023-02-18T04:56:10;5.40;5.40;4.00
45700;PMS5003;36277;32.852;-116.998;2023-02-18T04:58:37;5.80;5.80;4.00
45700;PMS5003;36277;32.852;-116.998;2023-02-18T05:01:03;6.00;6.00;5.00
45700;PMS5003;36277;32.852;-116.998;2023-02-18T05:03:30;2.40;2.40;1.80
45700;PMS5003;36277;32.852;-116.998;2023-02-18T05:05:57;5.00;5.00;4.00
45700;PMS5003;36277;32.852;-116.998;2023-02-18T05:08:23;4.60;4.60;4.00
45700;PMS5003;36277;32.852;-116.998;2023-02-18T05:10:50;5.80;5.80;5.20
45700;PMS5003;36277;32.852;-116.998;2023-02-18T05:13:16;7.00;7.00;5.00
45700;PMS5003;36277;32.852;-116.998;2023-02-18T05:15:42;3.40;3.40;3.00
45700;PMS5003;36277;32.852;-116.998;2023-02-18T05:18:09;5.60;5.60;4.00
45700;PMS5003;36277;32.852;-116.998;2023-02-18T05:20:35;5.40;5.40;4.00
45700;PMS5003;36277;32.852;-116.998;2023-02-18T05:23:01;5.20;5.20;3.60
45700;PMS5003;36277;32.852;-116.998;2023-02-18T05:25:27;5.00;5.00;4.00
45700;PMS5003;36277;32.852;-116.998;2023-02-18T05:27:54;5.20;5.20;4.00
45700;PMS5003;36277;32.852;-116.998;2023-02-18T05:30:20;4.60;4.60;4.00
45700;PMS5003;36277;32.852;-116.998;2023-02-18T05:32:46;7.60;6.80;5.40
45700;PMS5003;36277;32.852;-116.998;2023-02-18T05:35:12;5.60;5.60;4.60
45700;PMS5003;36277;32.852;-116.998;2023-02-18T05:37:39;2.00;2.00;2.00
45700;PMS5003;36277;32.852;-116.998;2023-02-18T05:40:05;4.00;4.00;3.00
45700;PMS5003;36277;32.852;-116.998;2023-02-18T05:42:32;4.40;4.40;3.80
45700;PMS5003;36277;32.852;-116.998;2023-02-18T05:44:58;3.80;3.80;3.00
45700;PMS5003;36277;32.852;-116.998;2023-02-18T05:47:24;4.00;4.00;3.60
45700;PMS5003;36277;32.852;-116.998;2023-02-18T05:49:51;3.00;3.00;2.80
45700;PMS5003;36277;32.852;-116.998;2023-02-18T05:52:17;4.00;4.00;3.00
45700;PMS5003;36277;32.852;-116.998;2023-02-18T05:54:43;4.00;4.00;3.00
45700;PMS5003;36277;32.852;-116.998;2023-02-18T05:57:11;1.60;1.60;1.00
45700;PMS5003;36277;32.852;-116.998;2023-02-18T05:59:39;4.20;4.20;3.40
45700;PMS5003;36277;32.852;-116.998;2023-02-18T06:02:06;3.00;3.00;2.80
45700;PMS5003;36277;32.852;-116.998;2023-02-18T06:04:32;4.00;4.00;3.00
45700;PMS5003;36277;32.852;-116.998;2023-02-18T06:06:58;3.00;3.00;2.00
45700;PMS5003;36277;32.852;-116.998;2023-02-18T06:09:24;4.00;4.00;3.00
45700;PMS5003;36277;32.852;-116.998;2023-02-18T06:11:51;3.20;3.20;2.80
45700;PMS5003;36277;32.852;-116.998;2023-02-18T06:14:17;4.00;4.00;3.20
45700;PMS5003;36277;32.852;-116.998;2023-02-18T06:16:43;3.00;3.00;2.40
45700;PMS5003;36277;32.852;-116.998;2023-02-18T06:19:09;3.60;3.60;3.00
45700;PMS5003;36277;32.852;-116.998;2023-02-18T06:21:35;4.00;4.00;3.80
45700;PMS5003;36277;32.852;-116.998;2023-02-18T06:24:02;1.00;1.00;1.00
45700;PMS5003;36277;32.852;-116.998;2023-02-18T06:26:28;2.80;2.80;2.20
45700;PMS5003;36277;32.852;-116.998;2023-02-18T06:28:54;2.00;2.00;2.00
45700;PMS5003;36277;32.852;-116.998;2023-02-18T06:31:21;2.60;2.60;2.40
45700;PMS5003;36277;32.852;-116.998;2023-02-18T06:33:47;3.00;2.60;2.00
45700;PMS5003;36277;32.852;-116.998;2023-02-18T06:36:13;2.00;2.00;2.00
45700;PMS5003;36277;32.852;-116.998;2023-02-18T06:38:41;2.20;2.20;2.00
45700;PMS5003;36277;32.852;-116.998;2023-02-18T06:41:09;3.00;3.00;2.40
45700;PMS5003;36277;32.852;-116.998;2023-02-18T06:43:36;2.20;2.20;2.00
45700;PMS5003;36277;32.852;-116.998;2023-02-18T06:46:03;4.00;4.00;3.00
45700;PMS5003;36277;32.852;-116.998;2023-02-18T06:48:30;3.00;3.00;2.60
45700;PMS5003;36277;32.852;-116.998;2023-02-18T06:50:57;2.00;2.00;2.00
45700;PMS5003;36277;32.852;-116.998;2023-02-18T06:53:24;2.00;2.00;2.00
45700;PMS5003;36277;32.852;-116.998;2023-02-18T06:55:50;2.00;2.00;2.00
45700;PMS5003;36277;32.852;-116.998;2023-02-18T06:58:16;2.20;2.20;2.20
45700;PMS5003;36277;32.852;-116.998;2023-02-18T07:00:43;3.00;3.00;2.80
45700;PMS5003;36277;32.852;-116.998;2023-02-18T07:03:10;2.00;2.00;2.00
45700;PMS5003;36277;32.852;-116.998;2023-02-18T07:05:38;2.00;2.00;2.00
45700;PMS5003;36277;32.852;-116.998;2023-02-18T07:08:06;3.00;3.00;2.00
45700;PMS5003;36277;32.852;-116.998;2023-02-18T07:10:32;2.00;2.00;1.80
45700;PMS5003;36277;32.852;-116.998;2023-02-18T07:12:58;2.80;2.80;2.80
45700;PMS5003;36277;32.852;-116.998;2023-02-18T07:15:24;2.40;2.40;2.00
45700;PMS5003;36277;32.852;-116.998;2023-02-18T07:17:52;3.00;3.00;3.00
45700;PMS5003;36277;32.852;-116.998;2023-02-18T07:20:19;2.00;2.00;2.00
45700;PMS5003;36277;32.852;-116.998;2023-02-18T07:22:47;3.00;3.00;3.00
45700;PMS5003;36277;32.852;-116.998;2023-02-18T07:25:14;2.00;2.00;2.00
45700;PMS5003;36277;32.852;-116.998;2023-02-18T07:27:40;0.00;0.00;0.00
45700;PMS5003;36277;32.852;-116.998;2023-02-18T07:30:06;2.60;2.60;2.00
45700;PMS5003;36277;32.852;-116.998;2023-02-18T07:32:33;3.00;3.00;2.40
45700;PMS5003;36277;32.852;-116.998;2023-02-18T07:34:59;2.20;2.20;2.00
45700;PMS5003;36277;32.852;-116.998;2023-02-18T07:37:26;1.40;1.40;1.40
45700;PMS5003;36277;32.852;-116.998;2023-02-18T07:39:52;2.00;2.00;2.00
45700;PMS5003;36277;32.852;-116.998;2023-02-18T07:42:18;1.40;1.40;1.20
45700;PMS5003;36277;32.852;-116.998;2023-02-18T07:44:45;2.40;2.40;2.00
45700;PMS5003;36277;32.852;-116.998;2023-02-18T07:47:12;1.60;1.60;1.00
45700;PMS5003;36277;32.852;-116.998;2023-02-18T07:49:41;2.60;2.60;2.00
45700;PMS5003;36277;32.852;-116.998;2023-02-18T07:52:07;3.00;3.00;3.00
45700;PMS5003;36277;32.852;-116.998;2023-02-18T07:54:34;2.00;2.00;2.00
45700;PMS5003;36277;32.852;-116.998;2023-02-18T07:57:00;2.00;2.00;2.00
45700;PMS5003;36277;32.852;-116.998;2023-02-18T07:59:26;3.00;3.00;2.60
45700;PMS5003;36277;32.852;-116.998;2023-02-18T08:01:53;2.20;2.20;2.00
45700;PMS5003;36277;32.852;-116.998;2023-02-18T08:04:19;2.00;2.00;2.00
45700;PMS5003;36277;32.852;-116.998;2023-02-18T08:06:46;3.40;3.40;3.00
45700;PMS5003;36277;32.852;-116.998;2023-02-18T08:09:15;2.20;2.20;2.20
45700;PMS5003;36277;32.852;-116.998;2023-02-18T08:11:42;2.80;2.80;2.00
45700;PMS5003;36277;32.852;-116.998;2023-02-18T08:14:09;3.00;3.00;2.60
45700;PMS5003;36277;32.852;-116.998;2023-02-18T08:16:36;3.00;3.00;2.40
45700;PMS5003;36277;32.852;-116.998;2023-02-18T08:19:02;3.20;3.20;3.00
45700;PMS5003;36277;32.852;-116.998;2023-02-18T08:21:29;3.00;3.00;2.00
45700;PMS5003;36277;32.852;-116.998;2023-02-18T08:23:56;3.00;3.00;2.00
45700;PMS5003;36277;32.852;-116.998;2023-02-18T08:26:23;2.00;2.00;2.00
45700;PMS5003;36277;32.852;-116.998;2023-02-18T08:28:49;3.00;3.00;2.60
45700;PMS5003;36277;32.852;-116.998;2023-02-18T08:33:46;1.00;1.00;1.00
45700;PMS5003;36277;32.852;-116.998;2023-02-18T08:36:13;2.60;2.60;2.00
45700;PMS5003;36277;32.852;-116.998;2023-02-18T08:38:40;3.20;3.20;3.00
45700;PMS5003;36277;32.852;-116.998;2023-02-18T08:41:07;2.60;2.60;2.20
45700;PMS5003;36277;32.852;-116.998;2023-02-18T08:43:33;3.20;3.20;2.40
45700;PMS5003;36277;32.852;-116.998;2023-02-18T08:46:00;2.60;2.60;2.40
45700;PMS5003;36277;32.852;-116.998;2023-02-18T08:48:27;3.00;3.00;3.00
45700;PMS5003;36277;32.852;-116.998;2023-02-18T08:50:54;2.40;2.40;2.00
45700;PMS5003;36277;32.852;-116.998;2023-02-18T08:53:20;2.60;2.60;2.00
45700;PMS5003;36277;32.852;-116.998;2023-02-18T08:55:47;1.80;1.80;1.80
45700;PMS5003;36277;32.852;-116.998;2023-02-18T08:58:13;2.80;2.80;2.00
45700;PMS5003;36277;32.852;-116.998;2023-02-18T09:00:40;2.60;2.60;2.20
45700;PMS5003;36277;32.852;-116.998;2023-02-18T09:03:09;2.40;2.40;2.00
45700;PMS5003;36277;32.852;-116.998;2023-02-18T09:05:38;0.20;0.20;0.20
45700;PMS5003;36277;32.852;-116.998;2023-02-18T09:08:05;2.40;2.40;2.00
45700;PMS5003;36277;32.852;-116.998;2023-02-18T09:10:31;2.00;2.00;2.00
45700;PMS5003;36277;32.852;-116.998;2023-02-18T09:12:58;2.60;2.60;2.00
45700;PMS5003;36277;32.852;-116.998;2023-02-18T09:15:24;2.80;2.80;2.00
45700;PMS5003;36277;32.852;-116.998;2023-02-18T09:17:50;2.80;2.80;2.40
45700;PMS5003;36277;32.852;-116.998;2023-02-18T09:20:16;2.75;2.75;2.00
45700;PMS5003;36277;32.852;-116.998;2023-02-18T09:22:43;2.00;2.00;2.00
45700;PMS5003;36277;32.852;-116.998;2023-02-18T09:25:09;2.00;2.00;2.00
45700;PMS5003;36277;32.852;-116.998;2023-02-18T09:27:36;2.80;2.80;2.40
45700;PMS5003;36277;32.852;-116.998;2023-02-18T09:30:02;1.40;1.40;1.40
45700;PMS5003;36277;32.852;-116.998;2023-02-18T09:32:29;2.00;2.00;2.00
45700;PMS5003;36277;32.852;-116.998;2023-02-18T09:34:55;2.60;2.60;2.20
45700;PMS5003;36277;32.852;-116.998;2023-02-18T09:37:21;2.00;2.00;2.00
45700;PMS5003;36277;32.852;-116.998;2023-02-18T09:39:48;4.00;4.00;3.00
45700;PMS5003;36277;32.852;-116.998;2023-02-18T09:42:15;2.00;2.00;2.00
45700;PMS5003;36277;32.852;-116.998;2023-02-18T09:44:47;2.00;2.00;2.00
45700;PMS5003;36277;32.852;-116.998;2023-02-18T09:47:25;2.00;2.00;2.00
45700;PMS5003;36277;32.852;-116.998;2023-02-18T09:50:07;2.00;2.00;2.00
45700;PMS5003;36277;32.852;-116.998;2023-02-18T09:52:42;2.00;2.00;2.00
45700;PMS5003;36277;32.852;-116.998;2023-02-18T09:55:30;1.75;1.75;1.00
45700;PMS5003;36277;32.852;-116.998;2023-02-18T09:57:56;2.00;2.00;2.00
45700;PMS5003;36277;32.852;-116.998;2023-02-18T10:00:31;2.00;2.00;2.00
45700;PMS5003;36277;32.852;-116.998;2023-02-18T10:03:04;2.75;2.75;2.25
45700;PMS5003;36277;32.852;-116.998;2023-02-18T10:05:40;1.00;1.00;1.00
45700;PMS5003;36277;32.852;-116.998;2023-02-18T10:08:21;2.00;2.00;1.75
45700;PMS5003;36277;32.852;-116.998;2023-02-18T10:10:53;2.00;2.00;1.00
45700;PMS5003;36277;32.852;-116.998;2023-02-18T10:13:20;2.25;2.25;2.00
45700;PMS5003;36277;32.852;-116.998;2023-02-18T10:15:49;2.00;2.00;1.75
45700;PMS5003;36277;32.852;-116.998;2023-02-18T10:18:20;3.00;3.00;2.25
45700;PMS5003;36277;32.852;-116.998;2023-02-18T10:20:47;2.00;2.00;1.00
45700;PMS5003;36277;32.852;-116.998;2023-02-18T10:23:15;2.50;2.50;2.25
45700;PMS5003;36277;32.852;-116.998;2023-02-18T10:25:44;2.00;2.00;1.50
45700;PMS5003;36277;32.852;-116.998;2023-02-18T10:28:13;2.00;2.00;1.75
45700;PMS5003;36277;32.852;-116.998;2023-02-18T10:30:42;2.00;2.00;2.00
45700;PMS5003;36277;32.852;-116.998;2023-02-18T10:33:34;1.00;1.00;1.00
45700;PMS5003;36277;32.852;-116.998;2023-02-18T10:42:35;1.00;1.00;1.00
45700;PMS5003;36277;32.852;-116.998;2023-02-18T10:53:01;1.50;1.50;1.00
45700;PMS5003;36277;32.852;-116.998;2023-02-18T10:55:48;1.50;1.50;1.25
45700;PMS5003;36277;32.852;-116.998;2023-02-18T10:58:25;2.00;2.00;2.00
45700;PMS5003;36277;32.852;-116.998;2023-02-18T11:00:54;2.25;2.25;2.25
45700;PMS5003;36277;32.852;-116.998;2023-02-18T11:03:22;0.00;0.00;0.00
45700;PMS5003;36277;32.852;-116.998;2023-02-18T11:05:51;1.00;1.00;1.00
45700;PMS5003;36277;32.852;-116.998;2023-02-18T11:08:26;1.50;1.50;1.00
45700;PMS5003;36277;32.852;-116.998;2023-02-18T11:11:05;1.00;1.00;1.00
45700;PMS5003;36277;32.852;-116.998;2023-02-18T11:13:54;2.50;2.50;2.00
45700;PMS5003;36277;32.852;-116.998;2023-02-18T11:16:23;2.00;2.00;2.00
45700;PMS5003;36277;32.852;-116.998;2023-02-18T11:19:00;1.75;1.75;1.00
45700;PMS5003;36277;32.852;-116.998;2023-02-18T11:21:35;1.00;1.00;1.00
45700;PMS5003;36277;32.852;-116.998;2023-02-18T11:24:11;1.00;1.00;1.00
45700;PMS5003;36277;32.852;-116.998;2023-02-18T11:26:41;1.00;1.00;1.00
45700;PMS5003;36277;32.852;-116.998;2023-02-18T11:31:49;1.25;1.25;1.00
45700;PMS5003;36277;32.852;-116.998;2023-02-18T11:34:22;2.00;2.00;2.00
45700;PMS5003;36277;32.852;-116.998;2023-02-18T11:36:53;2.00;2.00;1.75
45700;PMS5003;36277;32.852;-116.998;2023-02-18T11:39:25;1.00;1.00;1.00
45700;PMS5003;36277;32.852;-116.998;2023-02-18T11:44:36;2.00;2.00;1.75
45700;PMS5003;36277;32.852;-116.998;2023-02-18T11:49:39;1.25;1.25;1.00
45700;PMS5003;36277;32.852;-116.998;2023-02-18T11:54:35;1.50;1.50;1.50
45700;PMS5003;36277;32.852;-116.998;2023-02-18T11:57:05;1.00;1.00;1.00
45700;PMS5003;36277;32.852;-116.998;2023-02-18T11:59:37;2.00;2.00;2.00
45700;PMS5003;36277;32.852;-116.998;2023-02-18T12:04:40;1.00;1.00;1.00
45700;PMS5003;36277;32.852;-116.998;2023-02-18T12:07:21;1.00;1.00;1.00
45700;PMS5003;36277;32.852;-116.998;2023-02-18T12:10:09;2.00;2.00;2.00
45700;PMS5003;36277;32.852;-116.998;2023-02-18T12:12:45;2.00;2.00;2.00
45700;PMS5003;36277;32.852;-116.998;2023-02-18T12:15:19;0.25;0.25;0.25
45700;PMS5003;36277;32.852;-116.998;2023-02-18T12:17:58;1.00;1.00;1.00
45700;PMS5003;36277;32.852;-116.998;2023-02-18T12:23:47;1.00;1.00;1.00
45700;PMS5003;36277;32.852;-116.998;2023-02-18T12:26:39;2.00;2.00;1.75
45700;PMS5003;36277;32.852;-116.998;2023-02-18T12:29:17;2.00;2.00;2.00
45700;PMS5003;36277;32.852;-116.998;2023-02-18T12:34:51;1.00;1.00;1.00
45700;PMS5003;36277;32.852;-116.998;2023-02-18T12:50:54;1.00;1.00;1.00
45700;PMS5003;36277;32.852;-116.998;2023-02-18T13:02:53;1.00;1.00;1.00
45700;PMS5003;36277;32.852;-116.998;2023-02-18T13:13:58;0.75;0.75;0.50
45700;PMS5003;36277;32.852;-116.998;2023-02-18T13:16:29;1.00;1.00;1.00
45700;PMS5003;36277;32.852;-116.998;2023-02-18T13:21:29;1.00;1.00;1.00
45700;PMS5003;36277;32.852;-116.998;2023-02-18T13:26:28;0.75;0.75;0.50
45700;PMS5003;36277;32.852;-116.998;2023-02-18T13:29:13;1.50;1.50;1.50
45700;PMS5003;36277;32.852;-116.998;2023-02-18T13:32:32;1.50;1.50;1.50
45700;PMS5003;36277;32.852;-116.998;2023-02-18T13:34:48;0.25;0.25;0.00
45700;PMS5003;36277;32.852;-116.998;2023-02-18T13:37:25;1.00;1.00;1.00
45700;PMS5003;36277;32.852;-116.998;2023-02-18T13:40:05;1.00;1.00;1.00
45700;PMS5003;36277;32.852;-116.998;2023-02-18T13:42:43;1.00;1.00;1.00
45700;PMS5003;36277;32.852;-116.998;2023-02-18T13:45:26;1.00;1.00;1.00
45700;PMS5003;36277;32.852;-116.998;2023-02-18T13:47:55;1.00;1.00;1.00
45700;PMS5003;36277;32.852;-116.998;2023-02-18T13:57:59;0.00;0.00;0.00
45700;PMS5003;36277;32.852;-116.998;2023-02-18T14:00:33;0.00;0.00;0.00
45700;PMS5003;36277;32.852;-116.998;2023-02-18T14:05:55;0.50;0.50;0.50
45700;PMS5003;36277;32.852;-116.998;2023-02-18T14:08:32;0.00;0.00;0.00
45700;PMS5003;36277;32.852;-116.998;2023-02-18T14:13:43;0.00;0.00;0.00
45700;PMS5003;36277;32.852;-116.998;2023-02-18T14:19:35;1.00;1.00;0.75
45700;PMS5003;36277;32.852;-116.998;2023-02-18T14:22:48;0.00;0.00;0.00
45700;PMS5003;36277;32.852;-116.998;2023-02-18T14:24:55;0.00;0.00;0.00
45700;PMS5003;36277;32.852;-116.998;2023-02-18T14:27:29;1.00;1.00;1.00
45700;PMS5003;36277;32.852;-116.998;2023-02-18T14:29:55;0.50;0.50;0.25
45700;PMS5003;36277;32.852;-116.998;2023-02-18T14:32:29;0.00;0.00;0.00
45700;PMS5003;36277;32.852;-116.998;2023-02-18T14:35:02;0.50;0.50;0.00
45700;PMS5003;36277;32.852;-116.998;2023-02-18T14:40:15;0.00;0.00;0.00
45700;PMS5003;36277;32.852;-116.998;2023-02-18T14:50:53;0.00;0.00;0.00
45700;PMS5003;36277;32.852;-116.998;2023-02-18T14:53:21;0.00;0.00;0.00
45700;PMS5003;36277;32.852;-116.998;2023-02-18T14:55:52;0.75;0.75;0.50
45700;PMS5003;36277;32.852;-116.998;2023-02-18T14:58:31;1.00;1.00;1.00
45700;PMS5003;36277;32.852;-116.998;2023-02-18T15:01:21;0.75;0.75;0.75
45700;PMS5003;36277;32.852;-116.998;2023-02-18T15:03:52;0.50;0.50;0.50
45700;PMS5003;36277;32.852;-116.998;2023-02-18T15:06:33;0.00;0.00;0.00
45700;PMS5003;36277;32.852;-116.998;2023-02-18T15:09:06;0.00;0.00;0.00
45700;PMS5003;36277;32.852;-116.998;2023-02-18T15:11:46;0.00;0.00;0.00
45700;PMS5003;36277;32.852;-116.998;2023-02-18T15:14:22;0.00;0.00;0.00
45700;PMS5003;36277;32.852;-116.998;2023-02-18T15:16:52;1.00;1.00;0.50
45700;PMS5003;36277;32.852;-116.998;2023-02-18T15:19:19;0.00;0.00;0.00
45700;PMS5003;36277;32.852;-116.998;2023-02-18T15:21:49;0.00;0.00;0.00
45700;PMS5003;36277;32.852;-116.998;2023-02-18T15:24:24;1.00;1.00;1.00
45700;PMS5003;36277;32.852;-116.998;2023-02-18T15:27:13;0.50;0.50;0.50
45700;PMS5003;36277;32.852;-116.998;2023-02-18T15:29:42;0.00;0.00;0.00
45700;PMS5003;36277;32.852;-116.998;2023-02-18T15:32:20;0.00;0.00;0.00
45700;PMS5003;36277;32.852;-116.998;2023-02-18T15:34:53;0.00;0.00;0.00
45700;PMS5003;36277;32.852;-116.998;2023-02-18T15:37:22;0.75;0.75;0.75
45700;PMS5003;36277;32.852;-116.998;2023-02-18T15:39:50;0.25;0.25;0.00
45700;PMS5003;36277;32.852;-116.998;2023-02-18T15:42:32;1.00;1.00;0.75
45700;PMS5003;36277;32.852;-116.998;2023-02-18T15:45:08;0.00;0.00;0.00
45700;PMS5003;36277;32.852;-116.998;2023-02-18T15:47:44;0.50;0.50;0.50
45700;PMS5003;36277;32.852;-116.998;2023-02-18T15:50:17;0.25;0.25;0.00
45700;PMS5003;36277;32.852;-116.998;2023-02-18T15:52:47;1.00;1.00;1.00
45700;PMS5003;36277;32.852;-116.998;2023-02-18T15:55:19;0.50;0.50;0.00
45700;PMS5003;36277;32.852;-116.998;2023-02-18T15:58:02;0.25;0.25;0.00
45700;PMS5003;36277;32.852;-116.998;2023-02-18T16:00:38;0.25;0.25;0.00
45700;PMS5003;36277;32.852;-116.998;2023-02-18T16:03:26;0.75;0.75;0.25
45700;PMS5003;36277;32.852;-116.998;2023-02-18T16:08:55;0.25;0.25;0.25
45700;PMS5003;36277;32.852;-116.998;2023-02-18T16:11:27;0.50;0.50;0.00
45700;PMS5003;36277;32.852;-116.998;2023-02-18T16:13:59;0.00;0.00;0.00
45700;PMS5003;36277;32.852;-116.998;2023-02-18T16:16:30;0.25;0.25;0.00
45700;PMS5003;36277;32.852;-116.998;2023-02-18T16:19:00;0.00;0.00;0.00
45700;PMS5003;36277;32.852;-116.998;2023-02-18T16:21:37;0.00;0.00;0.00